Time;durP1;ratioP1;P1;durP2;ratioP2;P2;SDS_P1;SDS_P2;PMS_P1;PMS_P2;Temp;Humidity;BMP_temperature;BMP_pressure;BME280_temperature;BME280_humidity;BME280_pressure;Samples;Min_cycle;Max_cycle;Signal;HPM_P1;HPM_P2
2023/10/17 00:01:52;;;;;;;4.03;1.15;;;;;;;5.01;90.09;99237.41;4469462;32;20092;-81
2023/10/17 00:07:02;;;;;;;2.42;0.77;;;;;;;4.94;90.39;99230.91;4469467;32;20119;-82
2023/10/17 00:09:36;;;;;;;2.08;0.73;;;;;;;4.88;90.78;99229.50;4469499;32;20093;-81
2023/10/17 00:17:36;;;;;;;2.03;1.05;;;;;;;4.85;91.13;99219.28;4435661;32;20100;-82
2023/10/17 00:20:16;;;;;;;2.35;0.68;;;;;;;4.85;91.21;99219.28;4435960;32;20098;-82
2023/10/17 00:22:43;;;;;;;2.78;0.77;;;;;;;4.76;91.44;99218.06;4436136;32;20167;-82
2023/10/17 00:25:17;;;;;;;2.87;1.27;;;;;;;4.73;91.70;99210.47;4436106;32;20132;-82
2023/10/17 00:27:45;;;;;;;2.00;0.95;;;;;;;4.80;91.43;99216.97;4435649;32;20460;-82
2023/10/17 00:30:17;;;;;;;1.60;0.82;;;;;;;4.81;91.11;99215.19;4435922;32;20124;-82
2023/10/17 00:32:46;;;;;;;1.83;1.40;;;;;;;4.82;91.09;99213.47;4435668;32;20152;-82
2023/10/17 00:35:19;;;;;;;4.45;0.70;;;;;;;4.82;91.00;99213.47;4435628;32;20751;-82
2023/10/17 00:37:56;;;;;;;2.08;0.80;;;;;;;4.79;91.19;99219.66;4435677;32;20086;-81
2023/10/17 00:43:30;;;;;;;3.12;0.60;;;;;;;4.82;91.02;99208.28;4405305;32;20248;-82
2023/10/17 00:45:58;;;;;;;2.47;0.77;;;;;;;4.79;91.06;99204.91;4405034;32;20101;-82
2023/10/17 00:48:27;;;;;;;3.80;0.77;;;;;;;4.83;90.77;99210.78;4404935;32;20164;-82
2023/10/17 00:50:57;;;;;;;0.57;0.57;;;;;;;4.80;90.80;99214.38;4405292;32;20475;-82
2023/10/17 00:53:27;;;;;;;1.58;0.75;;;;;;;4.83;90.79;99205.56;4406324;32;20113;-81
2023/10/17 00:55:59;;;;;;;2.80;1.00;;;;;;;4.76;90.99;99197.28;4435753;32;20122;-82
2023/10/17 00:58:27;;;;;;;2.25;0.70;;;;;;;4.66;91.56;99201.34;4435451;32;20319;-82
2023/10/17 01:01:29;;;;;;;5.43;0.85;;;;;;;4.67;91.61;99195.25;4435958;32;20086;-82
2023/10/17 01:03:52;;;;;;;3.47;0.80;;;;;;;4.67;91.49;99190.06;4433811;32;20109;-82
2023/10/17 01:09:19;;;;;;;0.95;0.45;;;;;;;4.68;91.22;99189.12;4435889;32;20109;-82
2023/10/17 01:11:47;;;;;;;0.93;0.60;;;;;;;4.70;91.16;99186.44;4435491;32;20081;-82
2023/10/17 01:14:18;;;;;;;2.72;0.60;;;;;;;4.69;91.07;99190.78;4435826;32;20784;-82
2023/10/17 01:16:46;;;;;;;1.52;0.80;;;;;;;4.68;91.04;99183.94;4451379;32;20117;-82
2023/10/17 01:19:19;;;;;;;3.40;1.02;;;;;;;4.69;91.26;99177.81;4484542;31;20107;-82
2023/10/17 01:21:48;;;;;;;2.72;0.45;;;;;;;4.71;91.25;99181.16;4484756;31;20085;-82
2023/10/17 01:24:16;;;;;;;1.48;0.50;;;;;;;4.68;91.37;99181.34;4484498;32;20092;-82
2023/10/17 01:26:46;;;;;;;3.45;0.90;;;;;;;4.62;91.48;99173.94;4484670;31;20118;-82
2023/10/17 01:29:14;;;;;;;2.08;0.80;;;;;;;4.55;92.06;99180.38;4469107;32;20466;-82
2023/10/17 01:31:43;;;;;;;0.93;0.55;;;;;;;4.52;92.33;99181.41;4468935;32;20085;-82
2023/10/17 01:34:12;;;;;;;2.12;0.60;;;;;;;4.53;92.42;99177.06;4468714;32;20093;-82
2023/10/17 01:36:43;;;;;;;2.30;0.80;;;;;;;4.49;92.51;99180.75;4468917;32;20584;-82
2023/10/17 01:39:11;;;;;;;1.65;0.60;;;;;;;4.47;92.67;99170.47;4468750;32;20122;-81
2023/10/17 01:41:46;;;;;;;1.23;0.32;;;;;;;4.48;92.80;99169.53;4468968;32;20093;-82
2023/10/17 01:44:14;;;;;;;1.50;0.60;;;;;;;4.52;92.79;99180.56;4468602;32;20097;-82
2023/10/17 01:46:43;;;;;;;1.33;0.60;;;;;;;4.53;92.23;99177.06;4468545;32;20162;-82
2023/10/17 01:49:12;;;;;;;0.88;0.50;;;;;;;4.54;91.95;99176.97;4468635;32;20088;-82
2023/10/17 01:51:43;;;;;;;2.53;1.02;;;;;;;4.48;91.98;99174.72;4468730;32;20751;-82
2023/10/17 01:54:14;;;;;;;1.12;0.70;;;;;;;4.47;92.01;99177.37;4467100;32;20098;-82
2023/10/17 01:56:49;;;;;;;1.33;0.62;;;;;;;4.54;91.77;99178.72;4468710;32;20089;-82
2023/10/17 01:59:21;;;;;;;0.65;0.50;;;;;;;4.56;91.46;99182.91;4468450;32;20085;-81
2023/10/17 02:01:49;;;;;;;1.27;0.85;;;;;;;4.58;91.18;99182.81;4468538;32;20194;-82
2023/10/17 02:04:18;;;;;;;4.35;0.80;;;;;;;4.47;91.85;99182.56;4468174;32;20096;-82
2023/10/17 02:06:50;;;;;;;1.00;0.50;;;;;;;4.49;91.73;99186.75;4471889;32;20097;-81
2023/10/17 02:09:44;;;;;;;1.15;0.60;;;;;;;4.49;91.70;99193.72;4473718;32;20172;-82
2023/10/17 02:12:08;;;;;;;1.67;0.37;;;;;;;4.51;91.75;99190.12;4473599;32;20076;-82
2023/10/17 02:14:37;;;;;;;1.02;0.40;;;;;;;4.58;91.41;99185.41;4473312;32;20509;-82
2023/10/17 02:17:06;;;;;;;0.90;0.50;;;;;;;4.61;91.20;99187.81;4485898;32;20116;-82
2023/10/17 02:19:38;;;;;;;1.23;0.68;;;;;;;4.67;91.08;99190.06;4489031;31;20553;-81
2023/10/17 02:22:09;;;;;;;1.62;0.50;;;;;;;4.69;90.97;99197.75;4489349;31;20517;-82
2023/10/17 02:24:37;;;;;;;0.88;0.52;;;;;;;4.69;90.92;99189.97;4488778;31;20457;-82
2023/10/17 02:27:13;;;;;;;2.58;0.47;;;;;;;4.67;91.24;99191.81;4487864;31;20163;-82
2023/10/17 02:29:44;;;;;;;2.95;0.55;;;;;;;4.68;91.00;99190.88;4473239;32;20089;-82
2023/10/17 02:32:12;;;;;;;1.52;0.60;;;;;;;4.71;91.13;99191.56;4473290;32;20085;-82
2023/10/17 02:34:46;;;;;;;2.40;0.57;;;;;;;4.69;91.07;99197.75;4472998;32;20442;-82
2023/10/17 02:37:18;;;;;;;0.95;0.55;;;;;;;4.69;91.10;99187.38;4473250;32;20122;-81
2023/10/17 02:39:46;;;;;;;6.47;1.02;;;;;;;4.70;91.12;99194.25;4473178;32;20076;-82
2023/10/17 02:42:15;;;;;;;3.83;0.52;;;;;;;4.71;90.98;99204.53;4473102;32;20089;-82
2023/10/17 02:44:43;;;;;;;1.30;0.50;;;;;;;4.71;91.18;99196.75;4472929;32;20548;-82
2023/10/17 02:47:12;;;;;;;0.98;0.45;;;;;;;4.73;91.03;99201.84;4473103;32;20512;-82
2023/10/17 02:49:43;;;;;;;1.45;0.50;;;;;;;4.52;92.30;99198.72;4472933;32;20115;-82
2023/10/17 02:52:12;;;;;;;1.87;0.43;;;;;;;4.27;94.63;99197.53;4473104;32;20111;-81
2023/10/17 02:54:56;;;;;;;1.50;0.60;;;;;;;4.24;95.24;99200.31;4472786;32;20100;-82
2023/10/17 02:57:26;;;;;;;1.05;0.50;;;;;;;4.29;95.05;99195.69;4473207;32;20115;-82
2023/10/17 03:00:07;;;;;;;1.77;0.60;;;;;;;4.28;94.96;99195.78;4472685;32;20107;-82
2023/10/17 03:02:37;;;;;;;1.45;0.50;;;;;;;4.33;94.77;99202.38;4473262;32;20099;-81
2023/10/17 03:05:11;;;;;;;2.47;0.60;;;;;;;4.33;95.04;99204.97;4472847;32;20136;-82
2023/10/17 03:07:42;;;;;;;0.65;0.47;;;;;;;4.31;95.25;99199.00;4472978;32;20101;-81
2023/10/17 03:10:20;;;;;;;1.60;0.70;;;;;;;4.29;95.19;99200.87;4472735;32;20129;-82
2023/10/17 03:12:55;;;;;;;2.90;0.70;;;;;;;4.31;95.13;99196.41;4472753;32;20088;-82
2023/10/17 03:15:29;;;;;;;2.97;0.70;;;;;;;4.32;95.10;99203.28;4473502;32;20100;-82
2023/10/17 03:18:00;;;;;;;2.22;0.62;;;;;;;4.32;95.00;99203.28;4486850;31;20095;-82
2023/10/17 03:20:41;;;;;;;0.60;0.45;;;;;;;4.23;95.05;99206.41;4485584;32;20497;-82
2023/10/17 03:23:10;;;;;;;1.35;0.70;;;;;;;4.05;95.52;99203.91;4485712;31;20114;-82
2023/10/17 03:25:37;;;;;;;2.37;0.57;;;;;;;3.93;96.13;99204.59;4485079;32;20096;-82
2023/10/17 03:28:13;;;;;;;1.65;0.70;;;;;;;3.97;96.17;99208.69;4478107;32;20127;-82
2023/10/17 03:30:47;;;;;;;2.87;0.82;;;;;;;3.99;95.99;99200.81;4469726;32;20087;-82
2023/10/17 03:33:20;;;;;;;2.25;0.70;;;;;;;3.91;96.22;99199.50;4469910;32;20382;-82
2023/10/17 03:38:36;;;;;;;0.70;0.50;;;;;;;3.88;96.87;99201.41;4469957;32;20111;-82
2023/10/17 03:41:17;;;;;;;2.37;0.65;;;;;;;3.87;96.83;99199.75;4469758;32;20093;-82
2023/10/17 03:43:54;;;;;;;2.15;0.62;;;;;;;3.87;96.87;99203.16;4469594;32;20105;-82
2023/10/17 03:46:35;;;;;;;2.47;0.57;;;;;;;3.80;97.05;99201.00;4469490;32;20142;-82
2023/10/17 03:49:04;;;;;;;1.92;1.10;;;;;;;3.76;97.13;99207.28;4469769;32;20088;-82
2023/10/17 03:51:33;;;;;;;1.58;0.68;;;;;;;3.78;96.96;99205.44;4469898;32;20177;-82
2023/10/17 03:54:07;;;;;;;2.65;0.45;;;;;;;3.66;97.69;99210.34;4469553;32;20134;-82
2023/10/17 03:57:02;;;;;;;0.90;0.55;;;;;;;3.77;97.50;99208.94;4469614;32;20401;-82
2023/10/17 03:59:38;;;;;;;2.67;0.85;;;;;;;3.79;97.66;99202.75;4469555;32;20076;-81
2023/10/17 04:02:13;;;;;;;1.10;0.60;;;;;;;3.79;96.89;99196.75;4469662;32;20840;-82
2023/10/17 04:04:49;;;;;;;4.03;0.75;;;;;;;3.80;97.04;99199.25;4469209;32;20523;-82
2023/10/17 04:07:19;;;;;;;5.30;0.90;;;;;;;3.81;96.66;99195.72;4469595;32;20549;-82
2023/10/17 04:12:48;;;;;;;11.25;0.68;;;;;;;3.23;99.42;99197.09;4475648;31;20103;-82
2023/10/17 04:15:19;;;;;;;2.53;1.10;;;;;;;3.25;99.64;99192.66;4490043;31;20114;-79
2023/10/17 04:17:47;;;;;;;1.48;0.80;;;;;;;3.12;100.00;99200.25;4483863;31;20141;-74
2023/10/17 04:20:16;;;;;;;1.30;0.65;;;;;;;3.14;100.00;99195.81;4486055;31;20104;-75
2023/10/17 04:22:44;;;;;;;5.12;0.95;;;;;;;3.20;100.00;99192.91;4471265;31;20092;-74
2023/10/17 04:25:34;;;;;;;3.80;0.80;;;;;;;3.21;100.00;99191.16;4485497;31;20112;-74
2023/10/17 04:28:02;;;;;;;3.08;1.00;;;;;;;3.31;100.00;99199.28;4485257;31;20390;-74
2023/10/17 04:30:35;;;;;;;1.77;1.05;;;;;;;3.35;100.00;99199.03;4488191;31;20116;-76
2023/10/17 04:33:09;;;;;;;1.48;1.00;;;;;;;3.28;100.00;99194.25;4482725;32;20088;-74
2023/10/17 04:35:44;;;;;;;1.80;1.23;;;;;;;3.25;100.00;99192.66;4482858;31;20096;-74
2023/10/17 04:38:36;;;;;;;2.10;1.27;;;;;;;3.28;100.00;99196.84;4484105;31;20469;-76
2023/10/17 04:43:45;;;;;;;2.12;0.95;;;;;;;3.22;100.00;99198.00;4487232;31;20118;-75
2023/10/17 04:46:13;;;;;;;1.60;0.65;;;;;;;3.19;100.00;99196.41;4485424;31;20100;-75
2023/10/17 04:48:44;;;;;;;2.67;0.70;;;;;;;3.18;100.00;99197.31;4482874;31;20157;-77
2023/10/17 04:51:25;;;;;;;1.83;0.90;;;;;;;3.23;100.00;99197.09;4490685;31;20169;-76
2023/10/17 04:53:55;;;;;;;3.80;1.30;;;;;;;3.14;100.00;99202.75;4484847;31;20087;-75
2023/10/17 04:56:37;;;;;;;3.35;1.17;;;;;;;3.01;100.00;99200.78;4493908;31;20107;-76
2023/10/17 04:59:09;;;;;;;1.65;1.10;;;;;;;3.07;100.00;99203.97;4478726;31;20440;-76
2023/10/17 05:01:53;;;;;;;3.67;1.60;;;;;;;3.08;100.00;99210.84;4483542;31;20084;-74
2023/10/17 05:04:32;;;;;;;3.50;1.73;;;;;;;3.08;100.00;99205.66;4484262;31;20106;-75
2023/10/17 06:19:02;;;;;;;15.15;2.72;;;;;;;5.30;94.97;99266.03;4467414;32;20188;-79
2023/10/17 06:21:36;;;;;;;7.90;2.33;;;;;;;5.66;92.98;99264.72;4466953;32;20166;-78
2023/10/17 06:24:17;;;;;;;6.25;1.80;;;;;;;6.03;91.61;99270.28;4467879;32;20080;-79
2023/10/17 06:27:12;;;;;;;6.37;2.22;;;;;;;6.41;90.86;99269.63;4468690;32;20096;-82
2023/10/17 06:32:15;;;;;;;5.30;1.33;;;;;;;6.96;88.12;99272.16;4467888;32;20250;-80
2023/10/17 06:34:45;;;;;;;9.48;1.95;;;;;;;7.14;86.03;99276.16;4470096;32;20465;-77
2023/10/17 06:37:19;;;;;;;6.28;2.08;;;;;;;7.43;85.36;99274.19;4469855;31;20120;-77
2023/10/17 06:39:47;;;;;;;3.10;1.60;;;;;;;7.69;83.55;99281.16;4469431;31;20684;-77
2023/10/17 06:42:15;;;;;;;3.62;1.67;;;;;;;7.92;81.23;99279.56;4468308;31;20127;-76
2023/10/17 06:44:54;;;;;;;2.83;1.60;;;;;;;8.15;81.47;99275.34;4465917;32;20124;-81
2023/10/17 06:47:30;;;;;;;2.75;1.60;;;;;;;8.35;79.53;99274.72;4466720;32;20789;-80
2023/10/17 06:55:28;;;;;;;6.85;3.25;;;;;;;8.32;76.04;99279.34;4473266;32;20088;-80
2023/10/17 06:58:08;;;;;;;16.15;4.40;;;;;;;8.18;75.64;99275.13;4473759;31;20100;-83
2023/10/17 07:00:50;;;;;;;6.62;2.47;;;;;;;8.09;77.19;99278.38;4467847;32;20184;-78
2023/10/17 07:03:25;;;;;;;3.62;2.05;;;;;;;7.93;76.39;99281.22;4472202;31;20225;-80
2023/10/17 07:06:03;;;;;;;11.23;2.37;;;;;;;7.95;77.75;99274.97;4473108;32;20092;-81
2023/10/17 07:08:36;;;;;;;6.80;2.40;;;;;;;8.08;79.07;99268.87;4470614;32;20108;-82
2023/10/17 07:11:18;;;;;;;6.65;2.62;;;;;;;8.37;78.07;99273.78;4466189;32;20088;-79
2023/10/17 07:16:41;;;;;;;6.28;2.45;;;;;;;8.66;76.16;99269.94;4471520;32;20265;-77
2023/10/17 07:19:46;;;;;;;7.65;2.55;;;;;;;8.82;73.50;99276.63;4466392;32;20098;-79
2023/10/17 07:24:36;;;;;;;6.90;2.40;;;;;;;9.30;73.01;99273.91;4471019;31;20088;-78
2023/10/17 07:27:19;;;;;;;3.12;2.00;;;;;;;9.29;73.93;99269.63;4470071;32;20107;-78
2023/10/17 07:32:48;;;;;;;3.85;1.80;;;;;;;9.27;69.35;99279.38;4438028;32;20175;-78
2023/10/17 07:35:23;;;;;;;4.18;1.90;;;;;;;9.09;68.90;99280.78;4443099;32;20488;-79
2023/10/17 07:37:54;;;;;;;3.95;1.70;;;;;;;9.26;70.66;99285.53;4441849;32;20101;-81
2023/10/17 07:43:07;;;;;;;5.33;2.30;;;;;;;9.82;70.57;99283.94;4439706;32;20125;-81
2023/10/17 07:45:41;;;;;;;6.55;1.92;;;;;;;9.73;68.81;99275.81;4445183;32;20089;-82
2023/10/17 07:48:20;;;;;;;3.95;2.35;;;;;;;9.63;68.41;99279.28;4445500;32;20723;-83
2023/10/17 07:50:54;;;;;;;6.50;1.83;;;;;;;9.59;68.08;99282.13;4444043;32;20144;-78
2023/10/17 07:53:23;;;;;;;4.60;2.20;;;;;;;9.73;70.56;99278.44;4442373;32;20183;-79
2023/10/17 07:55:52;;;;;;;4.82;2.28;;;;;;;10.03;68.40;99281.41;4441818;32;20124;-81
2023/10/17 07:58:38;;;;;;;3.78;2.37;;;;;;;10.17;66.78;99275.91;4445656;32;20136;-82
2023/10/17 08:01:14;;;;;;;4.93;1.98;;;;;;;10.03;64.82;99277.00;4442914;32;20101;-82
2023/10/17 08:03:54;;;;;;;4.45;2.10;;;;;;;9.86;66.88;99280.97;4441079;32;20108;-81
2023/10/17 08:06:29;;;;;;;6.43;2.28;;;;;;;9.94;67.26;99277.75;4441883;32;20576;-83
2023/10/17 08:08:59;;;;;;;6.28;2.20;;;;;;;10.00;64.65;99286.91;4446418;32;20295;-81
2023/10/17 08:11:27;;;;;;;4.05;2.60;;;;;;;10.12;66.86;99286.75;4468342;32;20145;-78
2023/10/17 08:13:56;;;;;;;6.93;2.40;;;;;;;10.38;67.25;99288.28;4466534;32;20134;-79
2023/10/17 08:16:24;;;;;;;5.18;2.20;;;;;;;10.30;64.18;99288.88;4465043;32;20092;-86
2023/10/17 08:19:12;;;;;;;5.05;2.10;;;;;;;10.48;63.50;99291.84;4471149;31;20176;-82
2023/10/17 08:24:40;;;;;;;7.05;2.50;;;;;;;10.97;62.49;99284.37;4471125;31;20122;-81
2023/10/17 08:33:11;;;;;;;7.43;2.42;;;;;;;11.19;62.92;99292.13;4468564;31;20165;-83
2023/10/17 08:35:38;;;;;;;8.80;2.35;;;;;;;11.37;62.13;99286.31;4474061;31;20104;-81
2023/10/17 08:38:08;;;;;;;13.30;2.40;;;;;;;11.52;60.48;99292.87;4471533;32;20474;-80
2023/10/17 08:43:16;;;;;;;6.12;2.47;;;;;;;11.64;59.70;99290.16;4471228;31;20104;-82
2023/10/17 08:45:46;;;;;;;3.50;2.00;;;;;;;11.92;61.28;99283.38;4469464;31;20084;-81
2023/10/17 08:48:14;;;;;;;12.43;2.50;;;;;;;11.90;57.57;99283.50;4473393;31;20109;-80
2023/10/17 08:50:44;;;;;;;6.37;2.10;;;;;;;12.04;57.96;99279.69;4468584;31;20107;-82
2023/10/17 08:55:48;;;;;;;3.45;2.12;;;;;;;12.34;57.24;99274.50;4469959;32;20398;-82
2023/10/17 08:58:17;;;;;;;4.80;2.05;;;;;;;12.65;56.84;99277.03;4469590;31;20135;-82
2023/10/17 09:03:35;;;;;;;4.12;2.10;;;;;;;12.70;58.35;99270.41;4467808;32;20100;-82
2023/10/17 09:11:34;;;;;;;5.00;2.67;;;;;;;13.21;54.92;99268.41;4469997;32;20087;-75
2023/10/17 09:14:24;;;;;;;8.50;2.62;;;;;;;13.29;56.01;99281.69;4466751;32;20101;-76
2023/10/17 09:17:10;;;;;;;12.30;2.95;;;;;;;13.20;56.31;99277.28;4469064;32;20101;-76
2023/10/17 09:19:46;;;;;;;7.10;3.20;;;;;;;13.42;56.95;99275.31;4472207;31;20091;-76
2023/10/17 09:22:15;;;;;;;6.43;3.65;;;;;;;13.56;57.20;99274.84;4471829;31;20104;-76
2023/10/17 09:24:49;;;;;;;10.20;3.12;;;;;;;13.27;58.49;99272.28;4471846;31;20092;-75
2023/10/17 09:27:18;;;;;;;6.15;3.28;;;;;;;13.67;58.34;99271.19;4473993;31;20371;-75
2023/10/17 09:29:59;;;;;;;7.07;4.07;;;;;;;13.48;57.20;99274.75;4468206;31;20092;-76
2023/10/17 09:32:36;;;;;;;12.70;3.37;;;;;;;13.69;56.69;99277.16;4472434;31;20108;-75
2023/10/17 09:35:15;;;;;;;8.27;3.08;;;;;;;13.32;54.94;99280.56;4470425;32;20130;-78
2023/10/17 09:37:44;;;;;;;8.93;3.17;;;;;;;13.52;56.42;99283.19;4470724;31;20108;-78
2023/10/17 09:40:13;;;;;;;4.65;2.83;;;;;;;13.72;55.73;99276.87;4470712;31;20104;-77
2023/10/17 09:42:44;;;;;;;7.37;3.67;;;;;;;13.88;53.49;99278.88;4470475;31;20145;-77
2023/10/17 09:45:14;;;;;;;5.87;3.10;;;;;;;14.07;52.91;99272.69;4472934;31;20604;-78
2023/10/17 09:48:04;;;;;;;7.03;3.25;;;;;;;13.70;51.40;99265.69;4467805;32;20157;-79
2023/10/17 09:50:35;;;;;;;5.25;3.65;;;;;;;13.60;51.93;99265.69;4469148;31;20096;-79
2023/10/17 09:53:14;;;;;;;8.02;3.28;;;;;;;13.57;55.53;99254.63;4472709;31;20509;-80
2023/10/17 09:55:46;;;;;;;7.62;4.12;;;;;;;13.70;55.18;99256.94;4473646;31;20133;-78
2023/10/17 09:58:21;;;;;;;5.93;3.50;;;;;;;13.39;53.48;99254.56;4472725;32;20197;-78
2023/10/17 10:00:53;;;;;;;5.28;3.20;;;;;;;13.17;53.89;99256.53;4466951;32;20200;-81
2023/10/17 10:03:24;;;;;;;10.35;3.35;;;;;;;13.65;55.21;99249.47;4473230;31;20092;-80
2023/10/17 10:05:53;;;;;;;6.28;3.15;;;;;;;13.97;51.86;99242.94;4469197;32;20157;-81
2023/10/17 10:08:33;;;;;;;6.47;3.58;;;;;;;14.10;54.62;99250.50;4468826;32;20109;-82
2023/10/17 10:11:01;;;;;;;7.10;3.80;;;;;;;14.29;53.90;99252.16;4464349;32;20101;-78
2023/10/17 10:13:32;;;;;;;8.00;3.35;;;;;;;14.60;54.14;99243.91;4472266;32;20197;-80
2023/10/17 10:16:01;;;;;;;11.60;4.45;;;;;;;14.66;49.88;99241.53;4473184;32;20131;-79
2023/10/17 10:18:33;;;;;;;8.45;3.87;;;;;;;14.55;52.74;99241.72;4470866;32;20462;-78
2023/10/17 10:21:03;;;;;;;5.65;3.67;;;;;;;14.05;52.91;99229.88;4472547;32;20100;-82
2023/10/17 10:23:36;;;;;;;16.20;4.37;;;;;;;14.26;50.47;99234.03;4471090;32;20130;-79
2023/10/17 10:26:17;;;;;;;6.35;3.22;;;;;;;14.09;52.22;99227.75;4466869;32;20165;-79
2023/10/17 10:28:52;;;;;;;14.52;3.97;;;;;;;13.97;51.71;99230.63;4471270;32;20092;-80
2023/10/17 10:31:23;;;;;;;6.93;3.67;;;;;;;13.95;50.82;99229.09;4475369;32;20100;-78
2023/10/17 10:33:53;;;;;;;7.45;3.53;;;;;;;13.84;52.90;99225.69;4472923;31;20088;-78
2023/10/17 10:36:24;;;;;;;6.75;4.10;;;;;;;13.70;50.83;99220.91;4472784;31;20107;-78
2023/10/17 10:38:54;;;;;;;9.35;3.87;;;;;;;13.53;51.54;99216.41;4469418;32;20098;-77
2023/10/17 10:41:25;;;;;;;6.78;3.83;;;;;;;13.66;52.26;99215.09;4467932;32;20565;-76
2023/10/17 10:44:01;;;;;;;10.48;4.10;;;;;;;13.87;53.36;99214.03;4467654;32;20140;-75
2023/10/17 10:46:31;;;;;;;9.23;4.20;;;;;;;13.91;50.70;99218.00;4469155;32;20159;-76
2023/10/17 10:49:00;;;;;;;8.27;2.97;;;;;;;13.87;51.20;99213.19;4473072;32;20121;-74
2023/10/17 10:51:28;;;;;;;7.25;3.80;;;;;;;14.15;51.15;99200.81;4473045;32;20109;-73
2023/10/17 10:53:59;;;;;;;6.22;3.12;;;;;;;13.86;52.06;99196.56;4473237;32;20119;-74
2023/10/17 10:56:26;;;;;;;5.45;3.72;;;;;;;14.25;53.53;99200.75;4459119;32;20151;-73
2023/10/17 10:58:58;;;;;;;14.00;4.35;;;;;;;14.34;52.42;99203.31;4468011;32;20134;-75
2023/10/17 11:01:25;;;;;;;7.62;3.08;;;;;;;14.21;49.59;99200.22;4467252;32;20162;-74
2023/10/17 11:03:54;;;;;;;8.88;3.00;;;;;;;14.49;49.74;99189.62;4472371;32;20157;-75
2023/10/17 11:06:24;;;;;;;5.65;3.08;;;;;;;14.61;48.84;99185.78;4470726;32;20151;-75
2023/10/17 11:08:54;;;;;;;4.95;3.08;;;;;;;14.96;50.62;99178.78;4469113;32;20131;-74
2023/10/17 11:11:22;;;;;;;9.50;3.35;;;;;;;15.19;48.70;99191.44;4470594;31;20159;-74
2023/10/17 11:13:54;;;;;;;4.85;3.50;;;;;;;15.02;47.65;99175.50;4470691;32;20110;-74
2023/10/17 11:16:27;;;;;;;9.87;3.87;;;;;;;14.95;46.43;99181.56;4471233;32;20096;-75
2023/10/17 11:18:55;;;;;;;5.25;3.97;;;;;;;15.12;48.81;99187.78;4475287;31;20092;-75
2023/10/17 11:21:23;;;;;;;8.85;4.05;;;;;;;15.36;46.78;99179.97;4470935;32;20199;-74
2023/10/17 11:24:04;;;;;;;5.90;3.25;;;;;;;15.35;46.79;99180.97;4471541;32;20096;-74
2023/10/17 11:26:34;;;;;;;6.05;3.17;;;;;;;15.08;47.32;99182.81;4467356;31;20104;-74
2023/10/17 11:29:03;;;;;;;24.35;4.47;;;;;;;15.20;46.05;99177.25;4469111;32;20382;-74
2023/10/17 11:31:41;;;;;;;6.85;3.40;;;;;;;15.17;46.32;99181.03;4468110;32;20085;-74
2023/10/17 11:34:19;;;;;;;4.95;2.62;;;;;;;15.44;46.16;99169.47;4466105;32;20084;-75
2023/10/17 11:36:48;;;;;;;14.05;2.90;;;;;;;15.61;46.98;99164.25;4467389;31;20093;-75
2023/10/17 11:39:19;;;;;;;13.82;3.30;;;;;;;15.56;44.72;99163.88;4471345;32;20104;-76
2023/10/17 11:41:55;;;;;;;7.90;2.92;;;;;;;15.25;48.83;99145.94;4469024;31;20129;-76
2023/10/17 11:44:24;;;;;;;6.25;3.10;;;;;;;15.12;49.33;99154.28;4467885;31;20449;-76
2023/10/17 11:46:58;;;;;;;4.55;3.05;;;;;;;15.39;45.93;99147.16;4469885;31;20088;-75
2023/10/17 11:49:31;;;;;;;3.83;3.00;;;;;;;14.82;47.74;99158.22;4473222;32;20161;-76
2023/10/17 11:52:15;;;;;;;6.72;3.40;;;;;;;14.08;48.44;99149.69;4475507;32;20165;-75
2023/10/17 11:55:00;;;;;;;9.90;3.25;;;;;;;14.05;48.25;99157.91;4468029;31;20111;-76
2023/10/17 11:57:31;;;;;;;4.95;3.42;;;;;;;14.23;48.03;99158.75;4470409;32;20120;-76
2023/10/17 12:00:31;;;;;;;9.15;3.75;;;;;;;14.21;47.28;99158.06;4464614;32;20100;-76
2023/10/17 12:02:57;;;;;;;4.45;2.97;;;;;;;14.58;49.49;99154.41;4465900;32;20135;-76
2023/10/17 12:05:27;;;;;;;5.20;2.95;;;;;;;14.70;45.88;99145.31;4471471;32;20157;-76
2023/10/17 12:07:57;;;;;;;7.20;3.47;;;;;;;14.98;46.81;99149.59;4467686;32;20578;-76
2023/10/17 12:10:26;;;;;;;4.03;3.03;;;;;;;15.15;47.41;99147.87;4462509;32;20517;-77
2023/10/17 12:12:59;;;;;;;4.85;3.05;;;;;;;15.46;46.04;99149.97;4469147;32;20164;-76
2023/10/17 12:15:28;;;;;;;6.55;3.03;;;;;;;15.37;42.77;99143.84;4463131;32;20449;-76
2023/10/17 12:17:56;;;;;;;8.75;3.30;;;;;;;15.32;43.69;99136.41;4466326;32;20375;-77
2023/10/17 12:20:27;;;;;;;14.75;4.35;;;;;;;15.21;46.96;99128.75;4469303;31;20158;-76
2023/10/17 12:22:56;;;;;;;5.15;3.00;;;;;;;14.99;47.22;99133.63;4473102;32;20125;-77
2023/10/17 12:25:24;;;;;;;5.62;3.08;;;;;;;14.61;45.61;99130.41;4469558;32;20088;-77
2023/10/17 12:27:56;;;;;;;8.15;3.47;;;;;;;14.54;47.11;99127.50;4473922;32;20478;-74
2023/10/17 12:30:27;;;;;;;5.62;3.30;;;;;;;14.50;47.16;99123.56;4472235;32;20097;-76
2023/10/17 12:32:55;;;;;;;7.57;2.95;;;;;;;14.74;47.19;99111.53;4470928;32;20124;-77
2023/10/17 12:35:24;;;;;;;5.00;2.78;;;;;;;14.63;47.86;99119.72;4469066;32;20127;-76
2023/10/17 12:37:55;;;;;;;7.47;3.22;;;;;;;14.70;47.29;99120.72;4482774;31;20161;-76
2023/10/17 12:40:22;;;;;;;7.07;3.10;;;;;;;14.49;46.43;99118.44;4484316;32;20370;-76
2023/10/17 12:42:51;;;;;;;9.65;3.25;;;;;;;14.59;46.31;99113.06;4484079;32;20096;-74
2023/10/17 12:45:20;;;;;;;7.75;3.03;;;;;;;13.95;47.88;99110.56;4482438;31;20080;-75
2023/10/17 12:47:48;;;;;;;5.55;2.83;;;;;;;13.80;47.47;99103.16;4481618;31;20104;-78
2023/10/17 12:50:19;;;;;;;13.20;3.40;;;;;;;13.87;48.97;99094.66;4481246;31;20112;-75
2023/10/17 12:52:47;;;;;;;5.50;2.90;;;;;;;14.31;47.31;99095.56;4483080;31;20600;-76
2023/10/17 12:55:15;;;;;;;5.95;3.00;;;;;;;14.58;46.81;99098.19;4483905;31;20119;-76
2023/10/17 12:57:43;;;;;;;4.25;2.40;;;;;;;14.79;46.26;99096.09;4488424;31;20149;-76
2023/10/17 13:00:14;;;;;;;11.15;2.67;;;;;;;14.92;45.59;99094.81;4483479;31;20107;-76
2023/10/17 13:02:47;;;;;;;6.00;2.33;;;;;;;14.95;45.47;99095.31;4482357;31;20567;-77
2023/10/17 13:05:15;;;;;;;6.22;2.78;;;;;;;14.21;47.90;99094.81;4492082;31;20092;-80
2023/10/17 13:07:42;;;;;;;17.37;2.97;;;;;;;14.54;46.74;99097.69;4482572;31;20097;-79
2023/10/17 13:10:12;;;;;;;32.58;5.57;;;;;;;14.64;47.04;99094.97;4484061;32;20092;-78
2023/10/17 13:12:39;;;;;;;5.07;2.65;;;;;;;14.34;47.03;99089.97;4477504;31;20608;-77
2023/10/17 13:15:14;;;;;;;6.65;2.50;;;;;;;14.24;47.07;99089.22;4475753;31;20092;-77
2023/10/17 13:17:46;;;;;;;6.62;2.55;;;;;;;14.45;47.34;99088.91;4478904;31;20119;-77
2023/10/17 13:20:21;;;;;;;11.80;2.55;;;;;;;14.68;45.79;99083.97;4483013;31;20123;-78
2023/10/17 13:23:07;;;;;;;8.57;2.90;;;;;;;14.94;46.39;99080.47;4483472;31;20492;-77
2023/10/17 13:25:36;;;;;;;9.98;2.65;;;;;;;14.63;46.60;99080.16;4481816;31;20499;-77
2023/10/17 13:28:04;;;;;;;8.52;2.95;;;;;;;14.50;46.18;99081.38;4479129;32;20168;-78
2023/10/17 13:30:33;;;;;;;28.38;6.22;;;;;;;14.43;47.34;99079.47;4484330;31;20119;-76
2023/10/17 13:33:01;;;;;;;5.93;3.08;;;;;;;14.56;46.05;99079.91;4483935;31;20143;-77
2023/10/17 13:35:30;;;;;;;7.85;2.90;;;;;;;14.59;46.08;99078.78;4476975;31;206361;-78
2023/10/17 13:38:02;;;;;;;10.23;2.93;;;;;;;14.33;43.98;99075.12;4483085;31;20458;-79
2023/10/17 13:40:48;;;;;;;11.50;2.80;;;;;;;14.18;45.96;99084.56;4478717;31;20096;-78
2023/10/17 13:43:17;;;;;;;7.90;2.95;;;;;;;14.36;46.99;99082.72;4482733;32;20155;-79
2023/10/17 13:45:46;;;;;;;15.65;3.05;;;;;;;14.26;47.79;99084.66;4482974;32;20104;-78
2023/10/17 13:48:14;;;;;;;18.70;2.87;;;;;;;13.96;46.67;99084.06;4483095;32;20168;-79
2023/10/17 13:50:41;;;;;;;7.57;2.78;;;;;;;14.09;48.41;99082.84;4481761;32;20100;-79
2023/10/17 13:53:16;;;;;;;5.20;2.50;;;;;;;13.96;45.65;99083.22;4475825;32;20088;-83
2023/10/17 13:55:46;;;;;;;7.90;2.65;;;;;;;13.85;45.48;99084.28;4482460;32;20157;-82
2023/10/17 13:58:13;;;;;;;28.85;4.05;;;;;;;13.78;47.18;99080.63;4479520;31;20095;-82
2023/10/17 14:00:44;;;;;;;28.85;4.85;;;;;;;13.91;46.04;99074.97;4483964;32;20153;-83
2023/10/17 14:03:13;;;;;;;27.80;3.30;;;;;;;13.97;46.85;99072.56;4482181;32;20160;-83
2023/10/17 14:05:44;;;;;;;42.15;5.30;;;;;;;13.56;47.59;99068.72;4479057;31;20156;-82
2023/10/17 14:08:13;;;;;;;17.87;3.37;;;;;;;13.56;48.47;99072.16;4487710;31;20156;-81
2023/10/17 14:10:44;;;;;;;13.68;3.28;;;;;;;13.73;47.66;99074.97;4483515;32;20099;-83
2023/10/17 14:13:12;;;;;;;17.27;2.97;;;;;;;13.86;48.30;99075.41;4483963;31;20089;-82
2023/10/17 14:15:39;;;;;;;13.15;3.05;;;;;;;13.66;47.26;99067.66;4481113;32;20169;-82
2023/10/17 14:18:13;;;;;;;23.45;3.53;;;;;;;13.82;47.05;99066.16;4474986;32;20465;-78